WetterOnline ( https://www.wetteronline.de )

Wetter aktuell PLZ Bereich 71543

Aktuelles Wetter: Kaisersbach-Cronhütte (489m)

6-stündlich | Neueste Meldungen
Ortszeit Temperatur Wetter
Mo, 23.09. 14:00 13.6° C bedeckt
Mo, 23.09. 8:00 12.3° C leichter Regen
Mo, 23.09. 2:00 11.1° C bewölkt
So, 22.09. 20:00 15.9° C bedeckt
So, 22.09. 14:00 21.3° C wolkig
So, 22.09. 8:00 4.8° C wolkenlos
So, 22.09. 2:00 8.0° C wolkenlos
Sa, 21.09. 20:00 14.2° C wolkenlos
Ortszeit Temperatur Wetter
Mo, 23.09. 19:00 13.7° C bedeckt
Mo, 23.09. 18:50 13.7° C bedeckt
Mo, 23.09. 18:40 13.9° C wolkig
Mo, 23.09. 18:30 14.8° C wolkig
Mo, 23.09. 18:20 14.8° C wolkig
Mo, 23.09. 18:10 14.7° C wolkig
Mo, 23.09. 18:00 14.8° C wolkig
Mo, 23.09. 17:30 15.0° C wolkig
Mo, 23.09. 17:00 14.9° C bewölkt
Mo, 23.09. 16:30 15.0° C wolkig
Mo, 23.09. 16:00 14.6° C bewölkt
Ortszeit Relative Feuchte Sichtweite
Mo, 23.09. 14:00 90% 40 km
Mo, 23.09. 8:00 95% 7 km
Mo, 23.09. 2:00 91% 35 km
So, 22.09. 20:00 74% 70 km
So, 22.09. 14:00 40% 45 km
So, 22.09. 8:00 95% 29 km
So, 22.09. 2:00 86% 70 km
Sa, 21.09. 20:00 59% 70 km
Ortszeit Relative Feuchte Sichtweite
Mo, 23.09. 19:00 91% 55 km
Mo, 23.09. 18:50 91% -
Mo, 23.09. 18:40 90% -
Mo, 23.09. 18:30 80% 70 km
Mo, 23.09. 18:20 80% -
Mo, 23.09. 18:10 87% -
Mo, 23.09. 18:00 86% 70 km
Mo, 23.09. 17:30 81% 70 km
Mo, 23.09. 17:00 79% 60 km
Mo, 23.09. 16:30 80% 60 km
Mo, 23.09. 16:00 83% 50 km
Ortszeit Niederschlagsmenge Niederschlagsart
Mo, 23.09. 14:00 7 l/m2 in 6 Std. Regen
Mo, 23.09. 8:00 11 l/m2 in 12 Std. Regen
Mo, 23.09. 2:00 0.0 l/m2 in 6 Std. -
So, 22.09. 20:00 0.1 l/m2 in 12 Std. Regen
So, 22.09. 14:00 0.0 l/m2 in 6 Std. -
So, 22.09. 8:00 0.0 l/m2 in 12 Std. -
So, 22.09. 2:00 0.0 l/m2 in 6 Std. -
Sa, 21.09. 20:00 0.0 l/m2 in 12 Std. -
Ortszeit Niederschlagsmenge Niederschlagsart
Mo, 23.09. 19:00 0.0 l/m2 in 1 Std. -
Mo, 23.09. 18:50 keine Meldung -
Mo, 23.09. 18:40 keine Meldung -
Mo, 23.09. 18:30 0.0 l/m2 in 1 Std. -
Mo, 23.09. 18:20 keine Meldung -
Mo, 23.09. 18:10 keine Meldung -
Mo, 23.09. 18:00 0.0 l/m2 in 1 Std. -
Mo, 23.09. 17:30 0.0 l/m2 in 1 Std. -
Mo, 23.09. 17:00 0.0 l/m2 in 1 Std. Sprühregen
Mo, 23.09. 16:30 0.0 l/m2 in 1 Std. -
Mo, 23.09. 16:00 0.0 l/m2 in 1 Std. -
Ortszeit Stärke Spitze Richtung
km/h Bft. km/h Grad Sektor
Mo, 23.09. 14:00 11 2 24 270° W
Mo, 23.09. 8:00 13 3 41 270° W
Mo, 23.09. 2:00 0 0 4 - -
So, 22.09. 20:00 2 1 13 280° W
So, 22.09. 14:00 6 1 11 110° O
So, 22.09. 8:00 0 0 7 - -
So, 22.09. 2:00 4 1 7 310° NW
Sa, 21.09. 20:00 2 1 31 300° NW
Ortszeit Stärke Spitze Richtung
km/h Bft. km/h Grad Sektor
Mo, 23.09. 19:00 4 1 11 260° W
Mo, 23.09. 18:50 4 1 - 260° W
Mo, 23.09. 18:40 4 1 - 280° W
Mo, 23.09. 18:30 6 1 11 280° W
Mo, 23.09. 18:20 6 1 - 280° W
Mo, 23.09. 18:10 4 1 - 280° W
Mo, 23.09. 18:00 4 1 18 270° W
Mo, 23.09. 17:30 7 2 18 280° W
Mo, 23.09. 17:00 13 3 22 270° W
Mo, 23.09. 16:30 7 2 22 250° W
Mo, 23.09. 16:00 11 2 20 260° W
Ortszeit Untergrenze Bedeckung Gattung
total tief tief mittel hoch
Mo, 23.09. 14:00 300 m 8/8 8/8 - - -
Mo, 23.09. 8:00 150 m 7/8 7/8 - - -
Mo, 23.09. 2:00 2700 m 8/8 4/8 - - -
So, 22.09. 20:00 3600 m 8/8 8/8 - - -
So, 22.09. 14:00 3600 m 8/8 8/8 - - -
So, 22.09. 8:00 - 0/8 0/8 - - -
So, 22.09. 2:00 - 0/8 0/8 - - -
Sa, 21.09. 20:00 - 0/8 0/8 - - -
Ortszeit Bedeckungsgrad in Achtel und Wolkenuntergrenze
Mo, 23.09. 19:00 8(3900m)
Mo, 23.09. 18:50 8(3900m)
Mo, 23.09. 18:40 1(1500m) 8(3900m)
Mo, 23.09. 18:30 1(840m) 7(3900m)
Mo, 23.09. 18:20 1(840m) 2(1500m) 7(3900m)
Mo, 23.09. 18:10 1(810m) 4(3000m) 8(3900m)
Mo, 23.09. 18:00 2(990m) 5(3000m) 8(3900m)
Mo, 23.09. 17:30 3(1380m) 3(2400m) 8(3900m)
Mo, 23.09. 17:00 7(1290m) 8(3900m) 8(4800m)
Mo, 23.09. 16:30 1(510m) 8(3300m) 8(5100m)
Mo, 23.09. 16:00 4(510m) 7(2100m) 8(3600m)
Ortszeit Luftdruck NN (hPa) Tendenz (hPa in 3 Std.)
Mo, 23.09. 14:00 1017 - 0,2
Mo, 23.09. 8:00 1016 + 2,2
Mo, 23.09. 2:00 1012 + 0,9
So, 22.09. 20:00 1010 0,0
So, 22.09. 14:00 1010 - 1,3
So, 22.09. 8:00 1015 - 0,7
So, 22.09. 2:00 1016 - 1,6
Sa, 21.09. 20:00 1017 - 0,7
Ortszeit Luftdruck NN (hPa) Tendenz (hPa in 3 Std.)
Mo, 23.09. 19:00 1017 + 0,2
Mo, 23.09. 18:50 1017 keine Meldung
Mo, 23.09. 18:40 1017 keine Meldung
Mo, 23.09. 18:30 1017 + 0,1
Mo, 23.09. 18:20 1017 keine Meldung
Mo, 23.09. 18:10 1017 keine Meldung
Mo, 23.09. 18:00 1017 + 0,3
Mo, 23.09. 17:30 1017 + 0,2
Mo, 23.09. 17:00 1017 + 0,3
Mo, 23.09. 16:30 1017 + 0,2
Mo, 23.09. 16:00 1017 + 0,2
Ortszeit Schneehöhe (cm)
Mo, 23.09. 14:00 -
Mo, 23.09. 8:00 -
Mo, 23.09. 2:00 -
So, 22.09. 20:00 -
So, 22.09. 14:00 -
So, 22.09. 8:00 -
So, 22.09. 2:00 -
Sa, 21.09. 20:00 -
Ortszeit Schneehöhe (cm)
Mo, 23.09. 19:00 -
Mo, 23.09. 18:50 -
Mo, 23.09. 18:40 -
Mo, 23.09. 18:30 -
Mo, 23.09. 18:20 -
Mo, 23.09. 18:10 -
Mo, 23.09. 18:00 -
Mo, 23.09. 17:30 -
Mo, 23.09. 17:00 -
Mo, 23.09. 16:30 -
Mo, 23.09. 16:00 -
Link zu dieser Seite / Seite empfehlen

Das Wetter in ...